Time;durP1;ratioP1;P1;durP2;ratioP2;P2;SDS_P1;SDS_P2;PMS_P1;PMS_P2;Temp;Humidity;BMP_temperature;BMP_pressure;BME280_temperature;BME280_humidity;BME280_pressure;Samples;Min_cycle;Max_cycle;Signal;HPM_P1;HPM_P2
2022/10/31 00:01:20;;;;;;;38.33;20.17;;;;;;;14.07;85.48;101105.09;5034483;28;20462;-64
2022/10/31 00:03:47;;;;;;;37.03;17.70;;;;;;;14.08;85.17;101105.00;5034027;28;20049;-63
2022/10/31 00:06:17;;;;;;;38.10;20.35;;;;;;;14.07;85.65;101107.75;5037293;28;20136;-63
2022/10/31 00:08:52;;;;;;;32.83;19.88;;;;;;;13.97;87.94;101110.16;5041043;28;20063;-64
2022/10/31 00:11:20;;;;;;;37.75;21.40;;;;;;;13.88;87.73;101105.47;5032756;28;21161;-64
2022/10/31 00:13:47;;;;;;;42.10;21.35;;;;;;;13.86;87.37;101110.00;5038906;28;20140;-64
2022/10/31 00:16:22;;;;;;;31.95;20.13;;;;;;;13.84;87.99;101111.91;5033632;28;20140;-63
2022/10/31 00:18:54;;;;;;;29.38;17.85;;;;;;;13.88;87.15;101111.59;5041806;28;20048;-64
2022/10/31 00:21:22;;;;;;;33.22;19.08;;;;;;;13.98;87.40;101118.94;5035876;28;20485;-64
2022/10/31 00:23:49;;;;;;;32.90;19.08;;;;;;;14.00;86.37;101114.38;5040170;28;20065;-63
2022/10/31 00:26:16;;;;;;;33.22;18.88;;;;;;;14.02;85.72;101116.00;5046597;28;20045;-63
2022/10/31 00:28:44;;;;;;;32.28;18.48;;;;;;;14.02;85.83;101120.44;5042186;28;20132;-64
2022/10/31 00:31:12;;;;;;;34.72;18.40;;;;;;;13.90;87.12;101120.28;5031432;28;20056;-63
2022/10/31 00:33:40;;;;;;;31.05;18.77;;;;;;;13.83;87.56;101121.66;5043148;28;20053;-64
2022/10/31 00:36:10;;;;;;;26.88;17.15;;;;;;;13.89;86.94;101117.75;5038709;28;20041;-63
2022/10/31 00:38:37;;;;;;;29.67;17.50;;;;;;;13.95;86.36;101112.03;5034230;28;20044;-64
2022/10/31 00:41:04;;;;;;;29.60;17.20;;;;;;;13.99;85.81;101118.84;5037264;28;20056;-64
2022/10/31 00:43:31;;;;;;;27.83;18.50;;;;;;;14.02;85.49;101120.44;5038643;28;20739;-64
2022/10/31 00:45:58;;;;;;;28.30;16.95;;;;;;;14.04;85.17;101126.47;5027919;28;20512;-64
2022/10/31 00:48:26;;;;;;;27.80;16.88;;;;;;;13.99;85.82;101124.13;5029208;28;20106;-63
2022/10/31 00:50:53;;;;;;;28.10;16.58;;;;;;;13.98;85.45;101134.81;5027210;28;20060;-63
2022/10/31 00:53:20;;;;;;;31.73;18.42;;;;;;;13.91;86.33;101137.00;5032061;28;20144;-63
2022/10/31 00:55:47;;;;;;;28.83;17.52;;;;;;;13.89;86.95;101138.91;5036583;28;20054;-63
2022/10/31 00:58:14;;;;;;;26.98;16.52;;;;;;;13.92;86.94;101134.28;5036042;28;20045;-63
2022/10/31 01:00:41;;;;;;;29.90;16.10;;;;;;;13.94;86.28;101142.97;5030119;28;20046;-63
2022/10/31 01:03:14;;;;;;;31.98;15.70;;;;;;;13.91;87.42;101143.19;5030302;28;20391;-63
2022/10/31 01:05:41;;;;;;;31.75;16.88;;;;;;;13.93;87.56;101140.41;5028004;28;20053;-63
2022/10/31 01:08:08;;;;;;;35.45;15.65;;;;;;;13.97;87.86;101141.06;5036574;28;20069;-63
2022/10/31 01:10:35;;;;;;;27.63;15.57;;;;;;;13.97;87.76;101149.88;5036024;28;20153;-63
2022/10/31 01:13:02;;;;;;;24.73;15.10;;;;;;;13.98;87.73;101146.25;5033859;28;20069;-63
2022/10/31 01:15:29;;;;;;;27.67;16.48;;;;;;;13.90;88.06;101151.19;5026958;28;20137;-63
2022/10/31 01:17:57;;;;;;;22.23;15.23;;;;;;;13.80;88.90;101147.44;5037138;28;20095;-63
2022/10/31 01:20:24;;;;;;;28.65;16.35;;;;;;;13.77;88.52;101147.63;5038475;28;20077;-64
2022/10/31 01:22:51;;;;;;;28.70;16.15;;;;;;;13.76;87.85;101159.19;5029672;28;20050;-64
2022/10/31 01:25:18;;;;;;;27.13;15.63;;;;;;;13.78;87.50;101150.19;5032927;28;20057;-62
2022/10/31 01:27:46;;;;;;;32.75;16.92;;;;;;;13.78;87.92;101151.97;5030323;28;20056;-63
2022/10/31 01:30:13;;;;;;;30.90;15.90;;;;;;;13.72;88.67;101155.88;5039865;28;20072;-64
2022/10/31 01:32:40;;;;;;;25.63;15.15;;;;;;;13.71;88.56;101148.88;5031778;28;20084;-63
2022/10/31 01:35:07;;;;;;;23.38;15.55;;;;;;;13.69;89.67;101145.50;5042488;28;20072;-63
2022/10/31 01:37:34;;;;;;;29.60;14.38;;;;;;;13.68;89.23;101149.06;5035740;28;20139;-64
2022/10/31 01:40:03;;;;;;;22.75;14.00;;;;;;;13.71;87.93;101154.19;5039874;28;20132;-64
2022/10/31 01:42:30;;;;;;;25.85;13.35;;;;;;;13.73;87.80;101154.91;5035903;28;20050;-66
2022/10/31 01:45:01;;;;;;;20.58;12.70;;;;;;;13.76;87.12;101152.06;5032038;28;20119;-63
2022/10/31 01:47:37;;;;;;;24.38;13.80;;;;;;;13.75;87.25;101154.84;5036725;28;20657;-63
2022/10/31 01:50:09;;;;;;;23.25;13.50;;;;;;;13.75;86.77;101155.69;5036373;28;20160;-64
2022/10/31 01:52:41;;;;;;;28.70;14.40;;;;;;;13.78;86.50;101147.56;5020182;28;20136;-63
2022/10/31 01:55:24;;;;;;;25.10;13.32;;;;;;;13.81;86.46;101143.84;5037056;28;20590;-63
2022/10/31 01:57:59;;;;;;;20.33;12.63;;;;;;;13.80;86.01;101150.09;5044614;28;20052;-63
2022/10/31 02:00:27;;;;;;;24.27;14.27;;;;;;;13.74;86.54;101159.28;5026992;28;20489;-64
2022/10/31 02:02:55;;;;;;;29.92;15.13;;;;;;;13.65;88.73;101159.88;5028020;28;20133;-62
2022/10/31 02:05:25;;;;;;;26.48;14.55;;;;;;;13.49;89.58;101167.91;5028072;28;20057;-62
2022/10/31 02:08:15;;;;;;;23.33;14.23;;;;;;;13.49;88.96;101161.75;5037991;28;20135;-62
2022/10/31 02:10:42;;;;;;;22.13;12.88;;;;;;;13.52;88.20;101156.28;5017784;28;20171;-63
2022/10/31 02:13:11;;;;;;;26.65;14.57;;;;;;;13.57;88.05;101167.44;5028086;28;20143;-64
2022/10/31 02:15:40;;;;;;;25.73;13.13;;;;;;;13.57;88.51;101170.91;5032952;28;20041;-64
2022/10/31 02:18:08;;;;;;;23.70;13.95;;;;;;;13.54;88.19;101170.25;5029519;28;20060;-63
2022/10/31 02:20:42;;;;;;;26.48;14.07;;;;;;;13.55;87.81;101158.72;5032308;28;20077;-62
2022/10/31 02:23:41;;;;;;;19.30;12.77;;;;;;;13.56;87.72;101163.94;5011603;28;20057;-62
2022/10/31 02:26:29;;;;;;;18.45;12.88;;;;;;;13.59;87.47;101166.38;5027118;28;20120;-62
2022/10/31 02:28:59;;;;;;;22.55;12.98;;;;;;;13.60;87.61;101161.97;5037498;28;20135;-63
2022/10/31 02:32:08;;;;;;;25.85;13.20;;;;;;;13.61;87.43;101161.84;5031496;28;20080;-62
2022/10/31 02:34:48;;;;;;;23.33;12.52;;;;;;;13.60;87.24;101154.03;4967592;28;20126;-63
2022/10/31 02:37:43;;;;;;;19.73;11.38;;;;;;;13.58;87.35;101156.75;4981857;28;20078;-63
2022/10/31 02:40:27;;;;;;;19.98;11.57;;;;;;;13.59;87.24;101157.59;5016149;28;20216;-63
2022/10/31 02:43:13;;;;;;;17.60;12.10;;;;;;;13.56;87.27;101161.28;5033414;28;20049;-63
2022/10/31 02:45:50;;;;;;;21.45;12.77;;;;;;;13.50;87.33;101158.16;5027242;28;20132;-62
2022/10/31 02:48:31;;;;;;;21.17;11.57;;;;;;;13.49;87.70;101159.97;5042280;28;20140;-62
2022/10/31 02:51:00;;;;;;;22.90;12.32;;;;;;;13.48;87.54;101160.91;5023955;28;20053;-62
2022/10/31 02:53:34;;;;;;;21.35;12.40;;;;;;;13.44;87.98;101162.06;5031990;28;20049;-63
2022/10/31 02:56:06;;;;;;;23.55;13.23;;;;;;;13.43;87.52;101163.84;5036857;28;20049;-62
2022/10/31 02:58:37;;;;;;;18.27;12.32;;;;;;;13.41;88.00;101171.00;5026161;28;20640;-62
2022/10/31 03:01:13;;;;;;;23.40;12.75;;;;;;;13.37;88.52;101168.66;5027413;28;20057;-63
2022/10/31 03:03:58;;;;;;;21.15;12.52;;;;;;;13.32;88.79;101176.03;5036850;28;20053;-63
2022/10/31 03:06:30;;;;;;;19.08;11.02;;;;;;;13.23;89.37;101172.16;5030789;28;20066;-62
2022/10/31 03:09:01;;;;;;;23.52;13.18;;;;;;;13.23;90.78;101179.22;5036623;28;20046;-64
2022/10/31 03:11:41;;;;;;;25.88;12.75;;;;;;;13.27;90.99;101172.81;5043985;28;20444;-62
2022/10/31 03:14:19;;;;;;;19.42;12.07;;;;;;;13.26;92.48;101182.53;5030138;28;20136;-62
2022/10/31 03:16:51;;;;;;;23.45;11.85;;;;;;;13.22;91.42;101180.16;5036092;28;20064;-63
2022/10/31 03:19:19;;;;;;;20.00;12.35;;;;;;;13.23;91.45;101185.38;5032747;28;20056;-63
2022/10/31 03:21:50;;;;;;;24.65;12.23;;;;;;;13.23;92.27;101188.00;5022181;28;20045;-63
2022/10/31 03:24:19;;;;;;;16.65;11.05;;;;;;;13.23;92.77;101184.53;5026469;28;20140;-63
2022/10/31 03:26:52;;;;;;;19.85;11.25;;;;;;;13.29;92.67;101190.31;5036004;28;20060;-63
2022/10/31 03:29:22;;;;;;;23.35;11.48;;;;;;;13.29;92.01;101192.09;5028189;28;20156;-63
2022/10/31 03:31:57;;;;;;;20.55;11.20;;;;;;;13.29;93.21;101200.03;5031369;28;20068;-63
2022/10/31 03:34:25;;;;;;;18.30;10.32;;;;;;;13.29;92.24;101208.81;5034034;28;20628;-63
2022/10/31 03:36:55;;;;;;;21.83;11.90;;;;;;;13.32;94.17;101202.47;5033003;28;20465;-63
2022/10/31 03:39:22;;;;;;;25.67;11.55;;;;;;;13.26;93.94;101203.69;5044861;28;20133;-63
2022/10/31 03:41:55;;;;;;;17.77;11.55;;;;;;;13.25;95.42;101206.44;5041526;28;20052;-64
2022/10/31 03:44:23;;;;;;;24.02;11.88;;;;;;;13.22;94.33;101218.03;5036242;28;20421;-64
2022/10/31 03:46:50;;;;;;;26.02;10.80;;;;;;;13.23;96.29;101224.19;5032880;28;20045;-64
2022/10/31 03:49:17;;;;;;;20.85;11.38;;;;;;;13.25;95.99;101214.38;5017587;28;20049;-64
2022/10/31 03:51:50;;;;;;;21.00;10.02;;;;;;;13.23;96.03;101213.59;5043186;28;20057;-64
2022/10/31 03:54:42;;;;;;;22.42;9.95;;;;;;;13.22;96.19;101222.44;5035327;28;20049;-64
2022/10/31 03:57:22;;;;;;;17.73;9.60;;;;;;;13.29;96.02;101222.03;5041533;28;20401;-64
2022/10/31 04:00:06;;;;;;;18.63;11.35;;;;;;;13.33;96.78;101220.91;5035454;28;20516;-64
2022/10/31 04:02:35;;;;;;;14.07;9.73;;;;;;;13.29;95.60;101218.53;5028207;28;20049;-64
2022/10/31 04:05:02;;;;;;;19.02;10.15;;;;;;;13.26;95.42;101216.91;5036059;28;20140;-64
2022/10/31 04:07:33;;;;;;;18.02;10.15;;;;;;;13.23;95.55;101227.66;5032841;28;20081;-64
2022/10/31 04:10:02;;;;;;;23.85;10.75;;;;;;;13.25;95.75;101225.81;5035856;28;20049;-64
2022/10/31 04:12:30;;;;;;;20.23;10.88;;;;;;;13.21;97.19;101223.41;5037256;28;20088;-64
2022/10/31 04:14:58;;;;;;;17.85;10.27;;;;;;;13.19;96.94;101223.47;5034855;28;20074;-65
2022/10/31 04:17:30;;;;;;;17.33;9.13;;;;;;;13.22;95.81;101225.09;5040020;28;20640;-64
2022/10/31 04:20:00;;;;;;;20.83;12.55;;;;;;;13.25;97.50;101227.59;5035753;28;20125;-64
2022/10/31 04:22:27;;;;;;;26.27;12.02;;;;;;;13.39;98.35;101228.44;5038928;28;20141;-64
2022/10/31 04:24:54;;;;;;;22.77;11.50;;;;;;;13.28;99.46;101224.75;5044117;28;20063;-62
2022/10/31 04:27:39;;;;;;;25.02;10.95;;;;;;;13.26;98.24;101235.44;5034516;28;20049;-62
2022/10/31 04:30:06;;;;;;;24.40;10.75;;;;;;;13.26;99.12;101237.22;5038364;28;20565;-62
2022/10/31 04:32:33;;;;;;;19.95;11.50;;;;;;;13.26;99.64;101238.06;5029522;28;20049;-62
2022/10/31 04:35:01;;;;;;;22.83;10.57;;;;;;;13.29;99.19;101239.69;5038689;28;20526;-62
2022/10/31 04:37:28;;;;;;;20.15;11.75;;;;;;;13.26;98.98;101230.13;5024446;28;20591;-60
2022/10/31 04:39:55;;;;;;;28.15;11.80;;;;;;;13.32;99.61;101242.97;5041597;28;20047;-62
2022/10/31 04:42:22;;;;;;;20.60;10.73;;;;;;;13.25;98.88;101239.03;5036254;28;20144;-63
2022/10/31 04:44:49;;;;;;;14.65;9.75;;;;;;;13.23;98.83;101245.34;5035585;28;20386;-62
2022/10/31 04:47:16;;;;;;;18.75;10.80;;;;;;;13.24;98.60;101241.75;5038809;28;20136;-63
2022/10/31 04:49:44;;;;;;;25.08;11.75;;;;;;;13.26;98.18;101250.44;5032017;28;20131;-63
2022/10/31 04:52:11;;;;;;;24.45;12.45;;;;;;;13.28;98.88;101246.75;5040877;28;20063;-63
2022/10/31 04:54:38;;;;;;;21.63;11.13;;;;;;;13.34;98.41;101248.19;5037203;28;20045;-66
2022/10/31 04:57:05;;;;;;;27.33;13.15;;;;;;;13.28;100.00;101251.19;5043025;28;20053;-63
2022/10/31 04:59:32;;;;;;;22.23;12.15;;;;;;;13.20;100.00;101246.34;5034531;28;20045;-64
2022/10/31 05:01:59;;;;;;;20.13;11.27;;;;;;;13.20;100.00;101240.22;5033868;28;20057;-64
2022/10/31 05:04:27;;;;;;;18.33;10.60;;;;;;;13.21;100.00;101242.75;5039295;28;20060;-65
2022/10/31 05:06:54;;;;;;;20.70;12.15;;;;;;;13.20;100.00;101248.16;5032741;28;20423;-63
2022/10/31 05:09:21;;;;;;;19.10;11.75;;;;;;;13.14;100.00;101244.91;5041902;28;20048;-63
2022/10/31 05:11:48;;;;;;;18.95;10.95;;;;;;;13.09;100.00;101240.84;5038209;28;20053;-64
2022/10/31 05:14:15;;;;;;;34.70;12.60;;;;;;;13.13;100.00;101250.28;5035571;28;20073;-64
2022/10/31 05:16:42;;;;;;;21.80;12.13;;;;;;;13.14;100.00;101249.34;5035145;28;20053;-63
2022/10/31 05:19:10;;;;;;;24.67;12.15;;;;;;;13.09;100.00;101252.25;5039565;28;20056;-63
2022/10/31 05:21:37;;;;;;;25.65;12.40;;;;;;;13.06;100.00;101248.97;5039912;28;20053;-64
2022/10/31 05:24:04;;;;;;;29.60;12.82;;;;;;;13.05;100.00;101253.38;5037374;28;20073;-63
2022/10/31 05:26:31;;;;;;;20.77;12.20;;;;;;;13.10;100.00;101256.63;5037792;28;20500;-63
2022/10/31 05:28:58;;;;;;;34.03;13.95;;;;;;;13.05;100.00;101253.38;5039845;28;20506;-63
2022/10/31 05:31:25;;;;;;;28.33;14.38;;;;;;;12.98;100.00;101252.06;5034692;28;20133;-62
2022/10/31 05:33:52;;;;;;;28.13;14.27;;;;;;;12.94;100.00;101258.47;5027414;28;20063;-64
2022/10/31 05:36:20;;;;;;;30.08;12.48;;;;;;;12.96;100.00;101261.00;5028065;28;20486;-63
2022/10/31 05:38:47;;;;;;;18.83;13.15;;;;;;;13.00;100.00;101260.75;5037114;28;20048;-64
2022/10/31 05:41:14;;;;;;;19.88;12.13;;;;;;;13.03;100.00;101260.56;5036676;28;20055;-63
2022/10/31 05:43:41;;;;;;;22.30;11.93;;;;;;;13.10;100.00;101261.03;5039946;28;20531;-63
2022/10/31 05:46:08;;;;;;;25.05;13.00;;;;;;;13.09;100.00;101265.47;5036411;28;20046;-63
2022/10/31 05:48:35;;;;;;;22.23;12.75;;;;;;;13.11;100.00;101257.47;5042064;28;20053;-64
2022/10/31 05:51:02;;;;;;;22.92;12.30;;;;;;;13.12;100.00;101267.94;5032318;28;20136;-63
2022/10/31 05:53:30;;;;;;;26.08;13.75;;;;;;;13.16;100.00;101264.19;5040297;28;20056;-62
2022/10/31 05:55:57;;;;;;;22.42;12.95;;;;;;;13.07;100.00;101272.66;5034578;28;20498;-63
2022/10/31 05:58:24;;;;;;;30.20;12.82;;;;;;;13.03;100.00;101265.00;5029200;28;20057;-63
2022/10/31 06:00:51;;;;;;;28.08;13.48;;;;;;;12.99;100.00;101266.97;5028276;28;20049;-64
2022/10/31 06:03:18;;;;;;;25.65;13.88;;;;;;;12.97;100.00;101270.63;5030127;28;20049;-64
2022/10/31 06:05:45;;;;;;;24.85;14.27;;;;;;;12.97;100.00;101271.50;5024545;28;20045;-62
2022/10/31 06:08:20;;;;;;;23.52;15.93;;;;;;;13.00;100.00;101273.94;5029671;28;20156;-63
2022/10/31 06:10:47;;;;;;;32.65;14.15;;;;;;;12.95;100.00;101272.53;5036387;28;20124;-63
2022/10/31 06:13:14;;;;;;;22.42;12.80;;;;;;;12.95;100.00;101276.00;5029500;28;20045;-62
2022/10/31 06:15:41;;;;;;;25.70;11.73;;;;;;;12.97;100.00;101278.56;5024155;28;20079;-62
2022/10/31 06:18:08;;;;;;;24.88;12.95;;;;;;;12.97;100.00;101278.56;5035424;28;20054;-62
2022/10/31 06:20:36;;;;;;;27.88;13.75;;;;;;;12.98;100.00;101283.78;5037978;28;20513;-63
2022/10/31 06:23:04;;;;;;;26.50;14.60;;;;;;;12.96;100.00;101285.63;5014850;28;20049;-67
2022/10/31 06:25:32;;;;;;;27.35;14.52;;;;;;;12.95;100.00;101286.59;5037650;28;20055;-63
2022/10/31 06:27:59;;;;;;;22.55;14.65;;;;;;;12.96;100.00;101284.78;5033488;28;20447;-63
2022/10/31 06:30:27;;;;;;;26.75;15.18;;;;;;;12.98;100.00;101282.94;5037157;28;20141;-63
2022/10/31 06:32:54;;;;;;;24.75;14.23;;;;;;;12.94;100.00;101284.91;5033771;28;20052;-63
2022/10/31 06:35:21;;;;;;;31.60;16.13;;;;;;;12.91;100.00;101293.00;5030462;28;20140;-62
2022/10/31 06:37:53;;;;;;;26.73;14.15;;;;;;;12.88;100.00;101296.69;5036547;28;20136;-62
2022/10/31 06:40:20;;;;;;;26.27;14.40;;;;;;;12.88;100.00;101304.59;5033906;28;20045;-63
2022/10/31 06:42:47;;;;;;;19.48;12.05;;;;;;;12.90;100.00;101301.88;5036130;28;20055;-63
2022/10/31 06:45:14;;;;;;;33.83;14.43;;;;;;;12.92;100.00;101306.13;5031144;28;20401;-63
2022/10/31 06:47:41;;;;;;;24.73;14.52;;;;;;;12.93;100.00;101306.97;5035737;28;20047;-64
2022/10/31 06:50:29;;;;;;;23.38;14.50;;;;;;;12.91;100.00;101314.13;5034613;28;20088;-63
2022/10/31 06:52:57;;;;;;;33.95;14.52;;;;;;;12.90;100.00;101312.44;5030333;28;20476;-64
2022/10/31 06:55:26;;;;;;;29.80;14.88;;;;;;;12.91;100.00;101314.97;5033979;28;20144;-63
2022/10/31 06:57:57;;;;;;;27.13;13.43;;;;;;;12.96;100.00;101322.63;5025884;28;20057;-63
2022/10/31 07:00:30;;;;;;;21.88;12.55;;;;;;;13.00;100.00;101324.16;5027487;28;20042;-63
2022/10/31 07:03:05;;;;;;;29.38;13.50;;;;;;;13.03;100.00;101318.72;5031299;28;20124;-63
2022/10/31 07:05:33;;;;;;;39.03;15.38;;;;;;;13.07;100.00;101324.69;5025860;28;20132;-63
2022/10/31 07:08:03;;;;;;;35.20;15.15;;;;;;;13.06;100.00;101330.91;5040940;28;20048;-63
2022/10/31 07:10:31;;;;;;;26.88;14.65;;;;;;;13.07;100.00;101337.91;5032170;28;20121;-63
2022/10/31 07:13:07;;;;;;;24.10;15.25;;;;;;;13.05;100.00;101327.41;5032979;28;20053;-63
2022/10/31 07:15:36;;;;;;;25.35;14.70;;;;;;;13.08;100.00;101329.88;5038620;28;21113;-64
2022/10/31 07:18:04;;;;;;;26.92;14.88;;;;;;;13.14;100.00;101329.50;5037023;28;20132;-64
2022/10/31 07:20:32;;;;;;;31.42;14.32;;;;;;;13.18;100.00;101324.88;5033822;28;20096;-62
2022/10/31 07:23:00;;;;;;;30.17;15.43;;;;;;;13.25;100.00;101328.06;5031513;28;20077;-62
2022/10/31 07:25:28;;;;;;;28.88;13.60;;;;;;;13.31;100.00;101338.28;5047017;28;20041;-63
2022/10/31 07:27:55;;;;;;;32.67;15.07;;;;;;;13.36;100.00;101336.22;5036941;28;20052;-63
2022/10/31 07:30:23;;;;;;;34.90;15.88;;;;;;;13.40;100.00;101332.44;5029418;28;20053;-63
2022/10/31 07:32:50;;;;;;;25.38;13.60;;;;;;;13.45;100.00;101332.16;5029134;28;20129;-64
2022/10/31 07:35:20;;;;;;;28.17;14.40;;;;;;;13.50;100.00;101338.03;5037676;28;20053;-62
2022/10/31 07:37:48;;;;;;;30.85;14.45;;;;;;;13.55;100.00;101331.50;5037169;28;20060;-62
2022/10/31 07:40:15;;;;;;;30.65;14.15;;;;;;;13.62;100.00;101339.94;5037834;28;20059;-63
2022/10/31 07:42:47;;;;;;;26.20;15.13;;;;;;;13.66;100.00;101341.47;5039652;28;20076;-62
2022/10/31 07:45:17;;;;;;;28.90;14.65;;;;;;;13.70;100.00;101347.44;5029053;28;20064;-63
2022/10/31 07:47:46;;;;;;;23.27;13.50;;;;;;;13.75;100.00;101354.16;5033696;28;20141;-63
2022/10/31 07:50:15;;;;;;;35.70;15.70;;;;;;;13.81;100.00;101358.22;5032887;28;20051;-63
2022/10/31 07:52:42;;;;;;;32.67;16.27;;;;;;;13.85;100.00;101354.44;5035260;28;20049;-62
2022/10/31 07:55:10;;;;;;;27.35;16.13;;;;;;;13.86;100.00;101358.78;5042935;28;20049;-61
2022/10/31 07:57:38;;;;;;;36.17;17.67;;;;;;;13.92;100.00;101367.22;5037334;28;20056;-62
2022/10/31 08:00:06;;;;;;;41.60;17.33;;;;;;;13.93;100.00;101365.41;5034996;28;20046;-62
2022/10/31 08:02:34;;;;;;;34.22;16.33;;;;;;;13.91;100.00;101372.56;5033864;28;20068;-63
2022/10/31 08:05:04;;;;;;;30.27;14.48;;;;;;;13.91;100.00;101372.56;5044599;28;20052;-63
2022/10/31 08:07:36;;;;;;;32.83;15.63;;;;;;;13.91;100.00;101372.56;5031002;28;20057;-63
2022/10/31 08:10:08;;;;;;;34.40;16.98;;;;;;;13.93;100.00;101381.28;5040715;28;20546;-63
2022/10/31 08:12:35;;;;;;;27.75;16.17;;;;;;;13.86;100.00;101369.38;5041431;28;20048;-62
2022/10/31 08:15:02;;;;;;;29.42;16.65;;;;;;;13.83;100.00;101372.22;5040354;28;20390;-64
2022/10/31 08:17:29;;;;;;;33.58;16.52;;;;;;;13.76;100.00;101381.47;5039137;28;20402;-63
2022/10/31 08:19:56;;;;;;;27.77;16.45;;;;;;;13.70;100.00;101373.91;5040395;28;20050;-63
2022/10/31 08:22:23;;;;;;;26.73;16.95;;;;;;;13.66;100.00;101375.88;5034745;28;20061;-63
2022/10/31 08:24:50;;;;;;;25.10;15.73;;;;;;;13.60;100.00;101373.59;5042716;28;20058;-63
2022/10/31 08:27:18;;;;;;;25.60;16.25;;;;;;;13.59;100.00;101370.06;5040008;28;20056;-63
2022/10/31 08:29:45;;;;;;;27.58;16.02;;;;;;;13.65;100.00;101374.16;5033448;28;20312;-64
2022/10/31 08:32:12;;;;;;;35.85;17.83;;;;;;;13.61;100.00;101386.72;5040663;28;20084;-63
2022/10/31 08:34:39;;;;;;;37.35;18.48;;;;;;;13.57;100.00;101384.34;5032700;28;20044;-64
2022/10/31 08:37:06;;;;;;;28.50;16.60;;;;;;;13.54;100.00;101385.38;5039763;28;20472;-63
2022/10/31 08:39:33;;;;;;;33.40;17.80;;;;;;;13.51;100.00;101390.00;5038839;28;20056;-64
2022/10/31 08:42:01;;;;;;;26.83;17.63;;;;;;;13.56;100.00;101380.00;5044875;28;20191;-64
2022/10/31 08:44:28;;;;;;;26.55;15.00;;;;;;;13.61;100.00;101384.09;5036665;28;20057;-63
2022/10/31 08:46:58;;;;;;;29.85;18.77;;;;;;;13.63;100.00;101382.19;5035936;28;20136;-63
2022/10/31 08:49:29;;;;;;;32.00;18.40;;;;;;;13.61;100.00;101380.59;5033233;28;20521;-63
2022/10/31 08:51:56;;;;;;;28.83;15.82;;;;;;;13.62;100.00;101372.53;5041632;28;20049;-63
2022/10/31 08:54:23;;;;;;;27.38;17.58;;;;;;;13.66;100.00;101373.22;5036877;28;20511;-63
2022/10/31 08:56:55;;;;;;;33.15;19.08;;;;;;;13.64;100.00;101370.69;5042014;28;20050;-64
2022/10/31 08:59:22;;;;;;;26.65;17.05;;;;;;;13.62;100.00;101367.25;5037747;28;20416;-63
2022/10/31 09:01:49;;;;;;;30.35;17.73;;;;;;;13.67;100.00;101366.97;5033478;28;20060;-64
2022/10/31 09:04:16;;;;;;;31.85;18.40;;;;;;;13.70;100.00;101379.19;5035261;28;20688;-63
2022/10/31 09:06:44;;;;;;;35.47;20.45;;;;;;;13.67;100.00;101377.56;5035711;28;20068;-64
2022/10/31 09:09:31;;;;;;;34.47;19.02;;;;;;;13.69;100.00;101383.63;5043764;28;20069;-63
2022/10/31 09:11:58;;;;;;;36.13;20.40;;;;;;;13.76;100.00;101382.31;5034766;28;20063;-63
2022/10/31 09:14:26;;;;;;;33.58;17.70;;;;;;;13.84;100.00;101384.50;5037101;28;20057;-63
2022/10/31 09:16:53;;;;;;;37.10;20.10;;;;;;;13.88;100.00;101384.22;5042128;28;20516;-63
2022/10/31 09:19:20;;;;;;;31.40;19.50;;;;;;;13.92;100.00;101390.19;5034006;28;20045;-63
2022/10/31 09:21:47;;;;;;;36.80;19.15;;;;;;;13.93;100.00;101399.81;5038661;28;20064;-64
2022/10/31 09:24:14;;;;;;;33.45;18.92;;;;;;;13.96;100.00;101399.66;5036964;28;20048;-64
2022/10/31 09:26:42;;;;;;;34.33;19.83;;;;;;;14.04;100.00;101399.16;5042926;28;20145;-65
2022/10/31 09:29:09;;;;;;;37.00;19.70;;;;;;;14.08;100.00;101409.47;5039157;28;20069;-65
2022/10/31 09:31:36;;;;;;;37.42;20.10;;;;;;;14.10;100.00;101401.44;5040548;28;20140;-65
2022/10/31 09:34:10;;;;;;;37.65;20.02;;;;;;;14.15;100.00;101402.84;5043438;28;20061;-65
2022/10/31 09:36:38;;;;;;;37.33;21.48;;;;;;;14.18;100.00;101405.34;5056905;28;20060;-65
2022/10/31 09:39:07;;;;;;;36.20;20.75;;;;;;;14.21;100.00;101408.72;5054741;28;20122;-65
2022/10/31 09:42:12;;;;;;;34.70;19.88;;;;;;;14.25;100.00;101404.94;5059751;28;20157;-65
2022/10/31 09:44:55;;;;;;;32.22;19.40;;;;;;;14.34;100.00;101407.00;5038229;28;20083;-65
2022/10/31 09:47:27;;;;;;;31.23;20.17;;;;;;;14.40;100.00;101415.41;5034516;28;20132;-65
2022/10/31 09:50:12;;;;;;;41.80;20.33;;;;;;;14.42;100.00;101424.13;5044391;28;20049;-63
2022/10/31 09:52:42;;;;;;;36.58;22.25;;;;;;;14.38;100.00;101427.91;5053279;28;20437;-65
2022/10/31 09:55:17;;;;;;;42.90;20.65;;;;;;;14.36;100.00;101424.53;5032151;28;20061;-64
2022/10/31 09:57:44;;;;;;;40.72;20.02;;;;;;;14.36;100.00;101419.22;5036750;28;20057;-64
2022/10/31 10:00:17;;;;;;;45.20;24.05;;;;;;;14.39;100.00;101416.38;5030862;28;20055;-63
2022/10/31 10:02:59;;;;;;;39.63;23.40;;;;;;;14.40;100.00;101419.88;5023685;28;20045;-62
2022/10/31 10:05:38;;;;;;;42.67;24.80;;;;;;;14.48;100.00;101414.09;5037820;28;20053;-62
2022/10/31 10:08:32;;;;;;;46.45;26.05;;;;;;;14.59;100.00;101416.94;5039099;28;20045;-63
2022/10/31 10:11:25;;;;;;;45.88;25.98;;;;;;;14.72;100.00;101409.91;5034061;28;20053;-63
2022/10/31 10:14:08;;;;;;;41.28;23.95;;;;;;;14.85;100.00;101413.50;5028399;28;20168;-64
2022/10/31 10:16:43;;;;;;;47.97;26.52;;;;;;;14.94;100.00;101410.25;5037126;28;20046;-61
2022/10/31 10:19:26;;;;;;;42.47;27.27;;;;;;;15.03;100.00;101407.94;5037489;28;20061;-63
2022/10/31 10:22:01;;;;;;;37.65;24.80;;;;;;;15.13;100.00;101403.75;5028890;28;20641;-65
2022/10/31 10:24:55;;;;;;;49.25;28.40;;;;;;;15.17;100.00;101395.50;5039115;28;20083;-64
2022/10/31 10:27:39;;;;;;;46.13;27.90;;;;;;;15.23;99.94;101396.06;5035617;28;20041;-64
2022/10/31 10:30:20;;;;;;;49.00;28.45;;;;;;;15.27;99.96;101393.09;5034660;28;20052;-64
2022/10/31 10:32:52;;;;;;;39.88;25.77;;;;;;;15.37;99.32;101396.81;5027772;28;20044;-62
2022/10/31 10:35:47;;;;;;;44.45;26.92;;;;;;;15.45;98.70;101393.66;5042894;28;20057;-65
2022/10/31 10:38:43;;;;;;;55.47;26.58;;;;;;;15.58;98.90;101391.00;5036152;28;20151;-64
2022/10/31 10:41:14;;;;;;;40.15;24.02;;;;;;;15.80;98.16;101383.31;5022263;28;20524;-64
2022/10/31 10:43:41;;;;;;;35.10;21.13;;;;;;;16.02;97.39;101385.34;5034534;28;20051;-64
2022/10/31 10:49:17;;;;;;;45.63;25.55;;;;;;;16.61;94.94;101376.75;5041554;28;20053;-63
2022/10/31 10:52:09;;;;;;;37.92;22.05;;;;;;;17.00;92.94;101374.84;5027439;28;20176;-63
2022/10/31 10:55:01;;;;;;;38.88;21.60;;;;;;;17.29;90.64;101377.97;5030189;28;20041;-64
2022/10/31 10:57:37;;;;;;;35.33;22.25;;;;;;;17.36;88.09;101381.88;5042728;28;20059;-63
2022/10/31 11:00:18;;;;;;;43.13;23.17;;;;;;;17.41;87.49;101374.38;5034933;28;20502;-64
2022/10/31 11:02:45;;;;;;;36.60;20.83;;;;;;;17.52;87.53;101386.91;5027737;28;20102;-63
2022/10/31 11:05:34;;;;;;;40.08;21.15;;;;;;;17.63;86.70;101379.78;5036394;28;20049;-64
2022/10/31 11:08:02;;;;;;;44.80;24.73;;;;;;;17.79;84.72;101384.81;5034238;28;20050;-63
2022/10/31 11:10:29;;;;;;;40.20;22.42;;;;;;;17.81;84.33;101379.38;5038835;28;20065;-65
2022/10/31 11:13:15;;;;;;;41.30;24.05;;;;;;;17.93;84.50;101378.41;5027353;28;20489;-64
2022/10/31 11:15:54;;;;;;;;;;;;;;;18.14;83.16;101374.06;5038285;28;20041;-64
2022/10/31 11:18:24;;;;;;;38.42;21.02;;;;;;;18.29;82.61;101371.16;5036462;28;20016;-65
2022/10/31 11:20:58;;;;;;;39.55;21.85;;;;;;;18.53;82.60;101373.69;5033958;28;20687;-64
2022/10/31 11:23:27;;;;;;;40.72;23.88;;;;;;;18.75;81.13;101373.66;5037039;28;20395;-64
2022/10/31 11:25:57;;;;;;;38.15;20.60;;;;;;;18.95;80.17;101361.34;5033939;28;20049;-65
2022/10/31 11:28:25;;;;;;;35.90;20.67;;;;;;;19.20;79.77;101360.16;5035476;28;20053;-64